Viernes, 24 de Octubre del 2014

portal contactenos mapa del sitio buscar Revisar Correo Corporativo

|Reporte METAR por Reginal » ||Reporte TAF por Reginal » ||Reporte METAR, TAF y SIN覲TICO »

Reporte METAR por Regional

|| La Paz || Santa Cruz || Cochabamba || Beni - Pando ||

Informe METAR emitido cada hora.

Regional La Paz

ESTACIÓN

AEROPUERTO

HORA UTC

DESCRIPCIÓN

SLRY

Reyes

14-18S|67-21W

17:00

SLRY 241700Z 00000KT 9999 BKN016 BKN070 27/24 Q1012 A2991 HR81 RWY WET OPR 1 000M C206=

SLRQ

Rurrenabaque

14-25S|67-29W

17:00

SLRQ 241700Z 09004KT 9999 FEW015 BKN017 OVC200 27/25 Q1011 A2986 HR87=

SLAP

Apolo

14-44S|68-24W

17:00

SLAPO 121700Z NIL=

SLSB

San Borja

14-51S|66-44W

17:00

SLSB 241700Z 14006KT 9999 BKN017 BKN200 28/23 Q1010 A2985 HR73 RWY HUM OPR=

SLLP

Internaci贸nal El Alto

16-08S|68-10W

17:00

SLLP 241700Z 20004KT 9999 SCT017 15/M02 Q1037 A3062 627.5 P94// HR32 NOSIG=

SLCN

Chara帽a

17-35S|69-25W

-

Mensaje no Recibido

SLOR

Oruro

17-57S|67-04W

17:00

SLOR 241700Z 18003KT 9999 FEW015 16/00 Q1036 A3063 657.4 HR38=

SLUY

Uyuni

20-27S|62-52W

17:00

SLUY 241700Z 01010KT 9999 SCT015 18/M00 Q1034 A3054 658.3 HR26=

Regional Cochabamba

ESTACIÓN

AEROPUERTO

HORA UTC

DESCRIPCIÓN

SLCB

Cochabamba

17-25S|66-10W

17:00

SLCB 241700Z VRB03KT 9999 SCT027 26/07 Q1024 A3024 750.7 HR29 AC FU NOSIG=

SLSU

Sucre

19-00S|65-17W

17:00

SLSU 241700Z 17003KT 9999 SCT020 FEW030CB 19/08 Q1030 A3042 HR50 CB E/SE/S CI=

SLPO

Potos铆

19-32S|65-43W

17:00

SLPO 241700Z 06010KT 9999 SCT020 14/05 Q1038 A3065 HR62 CI=

SLAG

Monteagudo

19-49S|63-58W

17:00

SLAG 241700Z NIL=

SLVM

Villamontes

21-15S|63-24W

17:00

SLVM 241700Z 18008KT 9999 BKN023 36/19 Q1011 A2985 HR 34=

SLTJ

Tarija

21-33S|64-42W

17:00

SLTJ 241700Z 17006KT 9999 SCT030 FEW033CB 26/15 Q1021 A3015 HR50 CB N/NE/S/SW AC=

SLYA

Yacuiba

21-57S|63-39W

17:00

SLYA 241700Z 18005KT 9999 SCT023 32/22 Q1014 A2996 HR49 CI=

SLBJ

Bermejo

22-46S|64-18W

17:00

SLBJ 241700Z NIL=

Regional Santa Cruz

ESTACIÓN

AEROPUERTO

HORA UTC

DESCRIPCIÓN

SLAS

Ascenci贸n de Guarayos

15-55S|63-09W

17:00

SLAS 241700Z 04006KT 9999 SCT020 FEW030CB BKN070 29/23 Q1013 A2993 HR69 CB NW W RWY HUM OPR=

SLCP

Concepci贸n

16-08S|62-01W

17:00

SLCP 241700Z 00000KT 9999 SCT015 BKN200 25/21 Q1015 A2997 HR77 FU RWY HUM OPR=

SLJV

San Javier

16-16S|62-28W

17:00

SLJV 241700Z 00000KT 9999 SCT018 BKN070 OVC200 25/22 Q1012 A2988 HR84 RWY HUM OPR=

SLTI

San Mat铆as

16-20S|58-24W

17:00

SLTI 241700Z 00000KT 9999 BKN017 30/25 Q1016 A3000 HR73 RWY NML =

SLSI

San Ignacio de Velasco

16-23S|60-57W

17:00

SLSI 241700Z 00000KT 9999 BKN017 OVC070 26/22 Q1013 A2991 HR78 RWY NML=

SLVR

Internaci贸nal Viru Viru

17-38S|63-08W

17:00

SLVR 241700Z 33006KT 9999 FEW020 FEW025TCU SCT200 31/18 Q1013 A2993 HR45 AC NOSIG=

SLET

El Trompillo

17-48S|63-10W

17:00

SLET 241700Z 11005KT 9999 FEW020 SCT070 BKN200 31/19 Q1012 A2991 HR47 NOSIG=

SLJE

San Jos茅 de Chiquitos

17-49S|60-44W

15:00

SLJE 241500Z 18004KT 9999 SCT017 OVC070 29/19 Q1017 A3003 HR57 RWY NML=

SLRB

Robor茅

18-19S|59-45W

17:00

SLRB 241700Z 03005KT 9999 FEW020 FEW023CB 29/23 Q1014 A2994 HR72 CB/SH NE/E RWY WET OPR=

SLVG

Valle Grande

18-28S|64-05W

15:00

SLVG 241500Z 02005KT 9999 FEW025 SCT200 24/12 Q1025 A3027 HR43 RWY NML=

SLPS

Puerto Su谩rez

18-58S|57-49W

17:00

SLPS 241700Z 00000KT 9999 FEW015 OVC200 26/23 Q1012 A2989 HR82 FU=

SLCA

Camiri

20-00S|63-31W

17:00

SLCA 241700Z 15010KT 9999 BKN036 FEW040CB 32/16 Q1016 A3000 HR37 CB SW N RWY NML=

Regional Beni

ESTACIÓN

AEROPUERTO

HORA UTC

DESCRIPCIÓN

SLGM

Guayaramer铆n

10-49S|65-20W

17:00

SLGM 241700Z 36012KT 8000 VCSH SCT017 FEW020CB BKN200 32/24 Q1009 A2982 HR64 FU CB/SH SW=

SLRI

Riberalta

11-00S|66-04W

17:00

SLRI 241700Z 36006KT 7000 VCSH BKN017 FEW020CB BKN200 30/24 Q1010 A2983 HR68 FU CB/SH N/E/SE/SW/NW=

SLCO

Cobija

11-02S|68-47W

17:00

COR SLCO 241700Z 25012KT 3000 TSRA SCT017 SCT027CB BKN200 24/24 Q1010 A2984 983.0 HR98 CB/TS ON STN/N/NE/SE/SW/W =

SLJO

San Joaquin

13-03S|64-39W

17:00

SLJO 241700Z 00000KT 8000 -RA SCT017 FEW023CB OVC070 23/23 Q1010 A2985 HR98 RETS CB W/NW RWY WET OPR C206=

SLMG

San Magdalena

13-15S|64-03W

17:00

SLMG 241700Z 14004KT 9999 SCT015 BKN080 24/23 Q1011 A2988 HR95 RWY OPR C212=

SLRA

San Ram贸n

13-15S|64-36W

17:00

SLRA 241700Z 14004KT 7000 TS VCSH SCT008 FEW020CB OVC070 23/23 Q1011 A2987 HR97 FU CB/SH NE/SW/NW TS NE/NW RWY OPR C206=

SLBU

Baures

13-39S|63-42W

17:00

SLBU 241700Z 14006KT 8000 VCSH SCT015 FEW023CB BKN070 25/25 Q1013 A2992 HR98 RETSRA CB/SH SW RWY WET OPR C206=

SLSA

Santa Ana de Yacuma

13-45S|65-26W

17:00

SLSA 241700Z 02012KT 6000 VCSH SCT017 FEW023CB SCT080 BKN200 27 /23 Q1010 A2985 HR79 FU CB/SH N/NE/E=

SLSR

Santa Rosa

14-04S|66-47W

17:00

SLSR 241700Z 12004KT 9999 FEW010 BKN070 OVC200 26/25 Q1009 A2980 HR94 RWY OPR C206=

SLTR

Trinidad

14-49S|64-54W

17:00

SLTR 241700Z 06009KT 9999 BKN015 BKN200 32/22 Q1010 A2984 992.0 HR56 FU NOSIG=

SLSM

San Ignacio de Moxos

14-57S|65-38W

17:00

SLSM 241700Z 00000KT 9999 SCT080 OVC200 27/24 Q1010 A2984 HR86 RWY OPR C206=